Language: 


Des rapports , des résumés tant et plus, au choix de chacun....


Données Historiques de Météogheer
Journalier Rapport pour Février 1, 2017 Unitée:  Les deux    Impériale   Métrique
Suivant Jour »
Journalier Hebdomadaire Mensuel Annuel Sur mesure
  Max: Min: Moyenne:
Température: 48.6 °F /  9.2 °C 32 °F /  0.0 °C 45.9 °F /  7.7 °C
Point de rosée: 47.7 °F /  8.7 °C 38.7 °F /  3.7 °C 45.1 °F /  7.3 °C
Humidité: 98% 0% 97%
Vent: 13mph /  20.9km/h - 5mph /  8.1km/h
Rafales: 15.4mph /  24.8km/h - -
Vent- - SSE
Pression: 29.9 in /  1014.1 hPa 0 in /  0.0 hPa -
Pluie: 0.05 in /  1.3 mm    
Historical Graphs
 
 
Données tabulaires pour Février 1, 2017
Heure Température Point de rosée Pression Vent Vent Rafales Humidité Pluie Taux (Horaire) Conditions
00:02 39.2 °F /  4.0 °C 38.7 °F /  3.7 °C 29.9in /  1014.1hPa SE 3.8mph /  6.1km/h 4.3mph /  6.9km/h 98% 0in /  0.0mm
00:07 39.2 °F /  4.0 °C 38.7 °F /  3.7 °C 29.9in /  1014.1hPa SE 2mph /  3.2km/h 4.7mph /  7.6km/h 98% 0in /  0.0mm
00:12 39.2 °F /  4.0 °C 38.7 °F /  3.7 °C 29.9in /  1014.1hPa Calm   4.7mph /  7.6km/h 98% 0in /  0.0mm
00:17 39.2 °F /  4.0 °C 38.7 °F /  3.7 °C 29.9in /  1014.1hPa ESE 2.7mph /  4.3km/h 6mph /  9.7km/h 98% 0in /  0.0mm
00:22 39.4 °F /  4.1 °C 38.8 °F /  3.8 °C 29.9in /  1014.1hPa East 4mph /  6.4km/h 6mph /  9.7km/h 98% 0in /  0.0mm
00:27 39.4 °F /  4.1 °C 38.8 °F /  3.8 °C 29.9in /  1014.1hPa ESE 4.9mph /  7.9km/h 6.5mph /  10.5km/h 98% 0in /  0.0mm
00:32 39.4 °F /  4.1 °C 38.8 °F /  3.8 °C 29.9in /  1014.1hPa SE 5.4mph /  8.7km/h 6.5mph /  10.5km/h 98% 0in /  0.0mm
00:37 39.6 °F /  4.2 °C 39 °F /  3.9 °C 29.9in /  1014.1hPa Calm   6.3mph /  10.1km/h 98% 0in /  0.0mm
00:42 39.6 °F /  4.2 °C 39 °F /  3.9 °C 29.9in /  1014.1hPa SE 4mph /  6.4km/h 6.7mph /  10.8km/h 98% 0in /  0.0mm
00:47 39.7 °F /  4.3 °C 39.2 °F /  4.0 °C 29.9in /  1014.1hPa SE 3.4mph /  5.5km/h 6.7mph /  10.8km/h 98% 0in /  0.0mm
00:52 39.7 °F /  4.3 °C 39.2 °F /  4.0 °C 29.9in /  1014.1hPa SE 5.4mph /  8.7km/h 6.5mph /  10.5km/h 98% 0in /  0.0mm
00:57 39.7 °F /  4.3 °C 39.2 °F /  4.0 °C 29.9in /  1014.1hPa SE 3.6mph /  5.8km/h 6.5mph /  10.5km/h 98% 0in /  0.0mm
01:02 39.9 °F /  4.4 °C 39.4 °F /  4.1 °C 29.9in /  1014.1hPa SE 2.9mph /  4.7km/h 6mph /  9.7km/h 98% 0in /  0.0mm
01:07 39.9 °F /  4.4 °C 39.4 °F /  4.1 °C 29.9in /  1014.1hPa ESE 4.9mph /  7.9km/h 5.8mph /  9.3km/h 98% 0in /  0.0mm
01:12 40.1 °F /  4.5 °C 39.6 °F /  4.2 °C 29.9in /  1014.1hPa SSE 5.6mph /  9.0km/h 6.5mph /  10.5km/h 98% 0in /  0.0mm
01:17 40.1 °F /  4.5 °C 39.6 °F /  4.2 °C 29.9in /  1014.1hPa East 4.5mph /  7.2km/h 6.5mph /  10.5km/h 98% 0in /  0.0mm
01:22 40.3 °F /  4.6 °C 39.7 °F /  4.3 °C 29.9in /  1014.1hPa SE 3.1mph /  5.0km/h 6.3mph /  10.1km/h 98% 0in /  0.0mm
01:27 40.3 °F /  4.6 °C 39.7 °F /  4.3 °C 29.9in /  1014.1hPa ESE 2.7mph /  4.3km/h 6mph /  9.7km/h 98% 0in /  0.0mm
01:32 40.3 °F /  4.6 °C 39.7 °F /  4.3 °C 29.9in /  1014.1hPa SSE 5.4mph /  8.7km/h 6mph /  9.7km/h 98% 0in /  0.0mm
01:37 40.5 °F /  4.7 °C 39.9 °F /  4.4 °C 29.9in /  1014.1hPa SSE 3.8mph /  6.1km/h 6.3mph /  10.1km/h 98% 0in /  0.0mm
01:42 40.5 °F /  4.7 °C 39.9 °F /  4.4 °C 29.9in /  1014.1hPa SE 3.6mph /  5.8km/h 6.3mph /  10.1km/h 98% 0in /  0.0mm
01:47 40.6 °F /  4.8 °C 40.1 °F /  4.5 °C 29.9in /  1014.1hPa SE 5.4mph /  8.7km/h 6.5mph /  10.5km/h 98% 0in /  0.0mm
01:52 40.6 °F /  4.8 °C 40.1 °F /  4.5 °C 29.9in /  1013.1hPa SE 4.7mph /  7.6km/h 6.5mph /  10.5km/h 98% 0in /  0.0mm
01:57 40.8 °F /  4.9 °C 40.3 °F /  4.6 °C 29.9in /  1013.1hPa SSE 6mph /  9.7km/h 6.5mph /  10.5km/h 98% 0in /  0.0mm
02:03 32 °F /  0.0 °C 40.3 °F /  4.6 °C 29.9in /  1013.1hPa SSE 3.8mph /  6.1km/h 5.6mph /  9.0km/h 0% 0in /  0.0mm
02:08 41 °F /  5.0 °C 40.5 °F /  4.7 °C 29.9in /  1014.1hPa SSE 1.1mph /  1.8km/h 5.8mph /  9.3km/h 98% 0in /  0.0mm
02:13 41 °F /  5.0 °C 40.5 °F /  4.7 °C 29.9in /  1014.1hPa SSE 4.3mph /  6.9km/h 7.4mph /  11.9km/h 98% 0in /  0.0mm
02:18 41.2 °F /  5.1 °C 40.6 °F /  4.8 °C 29.9in /  1014.1hPa SE 5.4mph /  8.7km/h 7.4mph /  11.9km/h 98% 0in /  0.0mm
02:23 41.4 °F /  5.2 °C 40.8 °F /  4.9 °C 29.9in /  1013.1hPa SSE 5.8mph /  9.3km/h 7.4mph /  11.9km/h 98% 0in /  0.0mm
02:28 41.4 °F /  5.2 °C 40.8 °F /  4.9 °C 29.9in /  1013.1hPa ESE 4.9mph /  7.9km/h 7.6mph /  12.2km/h 98% 0in /  0.0mm
02:33 41.4 °F /  5.2 °C 40.8 °F /  4.9 °C 29.9in /  1013.1hPa SSE 4.3mph /  6.9km/h 7.6mph /  12.2km/h 98% 0in /  0.0mm
02:38 41.4 °F /  5.2 °C 40.8 °F /  4.9 °C 29.9in /  1012.1hPa SSE 6.5mph /  10.5km/h 7.6mph /  12.2km/h 98% 0in /  0.0mm
02:43 41.5 °F /  5.3 °C 41 °F /  5.0 °C 29.9in /  1012.1hPa SSE 4.7mph /  7.6km/h 7.6mph /  12.2km/h 98% 0in /  0.0mm
02:48 41.5 °F /  5.3 °C 41 °F /  5.0 °C 29.9in /  1012.1hPa SE 2.5mph /  4.0km/h 7.6mph /  12.2km/h 98% 0in /  0.0mm
02:53 41.7 °F /  5.4 °C 41.2 °F /  5.1 °C 29.9in /  1013.1hPa ESE 4.9mph /  7.9km/h 7.6mph /  12.2km/h 98% 0in /  0.0mm
02:58 41.9 °F /  5.5 °C 41.4 °F /  5.2 °C 29.9in /  1013.1hPa SE 4mph /  6.4km/h 6.9mph /  11.1km/h 98% 0in /  0.0mm
03:03 42.1 °F /  5.6 °C 41.5 °F /  5.3 °C 29.9in /  1013.1hPa SSE 2mph /  3.2km/h 6.9mph /  11.1km/h 98% 0in /  0.0mm
03:08 42.3 °F /  5.7 °C 41.7 °F /  5.4 °C 0in /  0.0hPa SE 4.9mph /  7.9km/h 6.3mph /  10.1km/h 98% 0in /  0.0mm
03:13 42.3 °F /  5.7 °C 41.7 °F /  5.4 °C 29.9in /  1013.1hPa Calm   6.3mph /  10.1km/h 98% 0in /  0.0mm
03:18 42.3 °F /  5.7 °C 41.7 °F /  5.4 °C 29.9in /  1013.1hPa SE 2mph /  3.2km/h 6.3mph /  10.1km/h 98% 0in /  0.0mm
03:23 42.4 °F /  5.8 °C 41.9 °F /  5.5 °C 29.9in /  1012.1hPa SE 5.4mph /  8.7km/h 6mph /  9.7km/h 98% 0in /  0.0mm
03:28 42.6 °F /  5.9 °C 42.1 °F /  5.6 °C 29.9in /  1012.1hPa SE 2.9mph /  4.7km/h 6mph /  9.7km/h 98% 0in /  0.0mm
03:33 42.6 °F /  5.9 °C 42.1 °F /  5.6 °C 29.9in /  1012.1hPa South 6mph /  9.7km/h 6.5mph /  10.5km/h 98% 0in /  0.0mm
03:38 42.6 °F /  5.9 °C 42.1 °F /  5.6 °C 29.9in /  1014.1hPa ESE 3.4mph /  5.5km/h 6.5mph /  10.5km/h 98% 0in /  0.0mm
03:43 42.8 °F /  6.0 °C 42.3 °F /  5.7 °C 29.9in /  1014.1hPa SE 4mph /  6.4km/h 6mph /  9.7km/h 98% 0in /  0.0mm
03:48 42.8 °F /  6.0 °C 42.3 °F /  5.7 °C 29.9in /  1014.1hPa SE 3.6mph /  5.8km/h 4mph /  6.4km/h 98% 0in /  0.0mm
03:53 43 °F /  6.1 °C 42.4 °F /  5.8 °C 29.9in /  1013.1hPa SSE 3.1mph /  5.0km/h 4.3mph /  6.9km/h 98% 0in /  0.0mm
03:58 43 °F /  6.1 °C 42.4 °F /  5.8 °C 29.9in /  1013.1hPa SE 4.3mph /  6.9km/h 5.6mph /  9.0km/h 98% 0in /  0.0mm
04:03 43.2 °F /  6.2 °C 42.6 °F /  5.9 °C 29.9in /  1013.1hPa SE 3.4mph /  5.5km/h 6mph /  9.7km/h 98% 0in /  0.0mm
04:08 43.2 °F /  6.2 °C 42.6 °F /  5.9 °C 29.9in /  1013.1hPa SSE 3.6mph /  5.8km/h 6.7mph /  10.8km/h 98% 0in /  0.0mm
04:13 43.3 °F /  6.3 °C 42.8 °F /  6.0 °C 29.9in /  1013.1hPa SE 3.6mph /  5.8km/h 6.7mph /  10.8km/h 98% 0in /  0.0mm
04:18 43.3 °F /  6.3 °C 42.8 °F /  6.0 °C 29.9in /  1013.1hPa ESE 2mph /  3.2km/h 6.5mph /  10.5km/h 98% 0in /  0.0mm
04:23 43.3 °F /  6.3 °C 42.8 °F /  6.0 °C 29.9in /  1013.1hPa Calm   6.3mph /  10.1km/h 98% 0in /  0.0mm
04:28 43.3 °F /  6.3 °C 42.8 °F /  6.0 °C 29.9in /  1013.1hPa SSE 2.5mph /  4.0km/h 5.8mph /  9.3km/h 98% 0in /  0.0mm
04:33 43.3 °F /  6.3 °C 42.8 °F /  6.0 °C 29.9in /  1013.1hPa SSE 4.9mph /  7.9km/h 5.8mph /  9.3km/h 98% 0in /  0.0mm
04:38 43.5 °F /  6.4 °C 43 °F /  6.1 °C 29.9in /  1014.1hPa SE 3.6mph /  5.8km/h 7.4mph /  11.9km/h 98% 0in /  0.0mm
04:43 43.5 °F /  6.4 °C 43 °F /  6.1 °C 29.9in /  1014.1hPa SSE 6mph /  9.7km/h 7.4mph /  11.9km/h 98% 0in /  0.0mm
04:48 43.5 °F /  6.4 °C 43 °F /  6.1 °C 29.9in /  1014.1hPa SE 3.6mph /  5.8km/h 6.3mph /  10.1km/h 98% 0in /  0.0mm
04:53 43.5 °F /  6.4 °C 43 °F /  6.1 °C 29.9in /  1013.1hPa SSE 5.4mph /  8.7km/h 6.3mph /  10.1km/h 98% 0in /  0.0mm
04:58 43.5 °F /  6.4 °C 43 °F /  6.1 °C 29.9in /  1013.1hPa SSW 5.4mph /  8.7km/h 7.4mph /  11.9km/h 98% 0in /  0.0mm
05:03 43.5 °F /  6.4 °C 43 °F /  6.1 °C 29.9in /  1013.1hPa SSE 4.9mph /  7.9km/h 7.4mph /  11.9km/h 98% 0in /  0.0mm
05:08 43.5 °F /  6.4 °C 43.2 °F /  6.2 °C 29.9in /  1012.1hPa SSE 3.6mph /  5.8km/h 6.7mph /  10.8km/h 98% 0in /  0.0mm
05:13 43.5 °F /  6.4 °C 43.2 °F /  6.2 °C 29.9in /  1012.1hPa SSE 1.6mph /  2.6km/h 6.7mph /  10.8km/h 98% 0in /  0.0mm
05:18 43.5 °F /  6.4 °C 43.2 °F /  6.2 °C 29.9in /  1012.1hPa SSE 4.9mph /  7.9km/h 5.8mph /  9.3km/h 98% 0in /  0.0mm
05:23 43.5 °F /  6.4 °C 43.2 °F /  6.2 °C 29.9in /  1012.1hPa SSE 5.4mph /  8.7km/h 5.8mph /  9.3km/h 98% 0in /  0.0mm
05:28 43.5 °F /  6.4 °C 43.2 °F /  6.2 °C 29.9in /  1012.1hPa South 3.8mph /  6.1km/h 6mph /  9.7km/h 98% 0in /  0.0mm
05:33 43.9 °F /  6.6 °C 43.3 °F /  6.3 °C 29.9in /  1012.1hPa SSE 6.5mph /  10.5km/h 6.5mph /  10.5km/h 98% 0in /  0.0mm
05:38 43.9 °F /  6.6 °C 43.3 °F /  6.3 °C 29.9in /  1012.1hPa ESE 3.1mph /  5.0km/h 6.5mph /  10.5km/h 98% 0in /  0.0mm
05:43 43.9 °F /  6.6 °C 43.3 °F /  6.3 °C 29.9in /  1012.1hPa SE 2mph /  3.2km/h 6.5mph /  10.5km/h 98% 0in /  0.0mm
05:48 43.9 °F /  6.6 °C 43.3 °F /  6.3 °C 29.9in /  1012.1hPa SE 2.7mph /  4.3km/h 6mph /  9.7km/h 98% 0in /  0.0mm
05:53 44.1 °F /  6.7 °C 43.5 °F /  6.4 °C 29.9in /  1012.1hPa SSE 4mph /  6.4km/h 6mph /  9.7km/h 98% 0in /  0.0mm
05:58 44.1 °F /  6.7 °C 43.5 °F /  6.4 °C 29.9in /  1012.1hPa SSE 2mph /  3.2km/h 4.9mph /  7.9km/h 98% 0in /  0.0mm
06:03 44.1 °F /  6.7 °C 43.5 °F /  6.4 °C 29.9in /  1012.1hPa SSE 3.6mph /  5.8km/h 5.4mph /  8.7km/h 98% 0in /  0.0mm
06:08 44.1 °F /  6.7 °C 43.5 °F /  6.4 °C 29.9in /  1011.1hPa Calm   5.4mph /  8.7km/h 98% 0in /  0.0mm
06:13 44.1 °F /  6.7 °C 43.5 °F /  6.4 °C 29.9in /  1011.1hPa SE 4mph /  6.4km/h 4.7mph /  7.6km/h 98% 0in /  0.0mm
06:18 44.1 °F /  6.7 °C 43.5 °F /  6.4 °C 29.9in /  1011.1hPa SSE 2.2mph /  3.5km/h 4.3mph /  6.9km/h 98% 0in /  0.0mm
06:23 44.1 °F /  6.7 °C 43.5 °F /  6.4 °C 29.9in /  1011.1hPa SSE 4.9mph /  7.9km/h 4.9mph /  7.9km/h 98% 0in /  0.0mm
06:28 44.2 °F /  6.8 °C 43.5 °F /  6.4 °C 29.9in /  1011.1hPa Calm   4.9mph /  7.9km/h 98% 0in /  0.0mm
06:33 44.2 °F /  6.8 °C 43.5 °F /  6.4 °C 29.9in /  1011.1hPa SE 2.7mph /  4.3km/h 5.4mph /  8.7km/h 98% 0in /  0.0mm
06:38 44.2 °F /  6.8 °C 43.5 °F /  6.4 °C 29.9in /  1011.1hPa SE 0.9mph /  1.4km/h 7.2mph /  11.6km/h 98% 0in /  0.0mm
06:43 44.2 °F /  6.8 °C 43.5 °F /  6.4 °C 29.9in /  1011.1hPa SSE 2.5mph /  4.0km/h 7.2mph /  11.6km/h 97% 0in /  0.0mm
06:48 44.2 °F /  6.8 °C 43.5 °F /  6.4 °C 29.9in /  1011.1hPa SSE 3.6mph /  5.8km/h 6mph /  9.7km/h 97% 0in /  0.0mm
06:53 44.2 °F /  6.8 °C 43.5 °F /  6.4 °C 29.9in /  1011.1hPa Calm   4.3mph /  6.9km/h 97% 0in /  0.0mm
06:58 44.4 °F /  6.9 °C 43.7 °F /  6.5 °C 29.9in /  1011.1hPa Calm   4.9mph /  7.9km/h 97% 0in /  0.0mm
07:03 44.4 °F /  6.9 °C 43.7 °F /  6.5 °C 29.9in /  1011.1hPa Calm   4.9mph /  7.9km/h 97% 0in /  0.0mm
07:08 44.4 °F /  6.9 °C 43.7 °F /  6.5 °C 29.9in /  1011.1hPa SE 6.3mph /  10.1km/h 6.5mph /  10.5km/h 97% 0in /  0.0mm
07:13 44.8 °F /  7.1 °C 43.9 °F /  6.6 °C 29.9in /  1011.1hPa SSE 4.9mph /  7.9km/h 6.5mph /  10.5km/h 97% 0in /  0.0mm
07:18 44.8 °F /  7.1 °C 43.9 °F /  6.6 °C 29.9in /  1011.1hPa SE 3.1mph /  5.0km/h 6.5mph /  10.5km/h 97% 0in /  0.0mm
07:23 45 °F /  7.2 °C 44.1 °F /  6.7 °C 29.9in /  1011.1hPa SSE 4mph /  6.4km/h 6.3mph /  10.1km/h 97% 0in /  0.0mm
07:28 45 °F /  7.2 °C 44.1 °F /  6.7 °C 29.9in /  1011.1hPa SSE 4mph /  6.4km/h 6mph /  9.7km/h 97% 0in /  0.0mm
07:33 45 °F /  7.2 °C 44.1 °F /  6.7 °C 29.9in /  1011.1hPa SSE 2.7mph /  4.3km/h 5.6mph /  9.0km/h 97% 0in /  0.0mm
07:38 45 °F /  7.2 °C 44.1 °F /  6.7 °C 29.8in /  1010.0hPa South 4.3mph /  6.9km/h 6.5mph /  10.5km/h 97% 0in /  0.0mm
07:43 45.1 °F /  7.3 °C 44.2 °F /  6.8 °C 29.8in /  1010.0hPa SE 6mph /  9.7km/h 6.5mph /  10.5km/h 97% 0in /  0.0mm
07:48 45.1 °F /  7.3 °C 44.2 °F /  6.8 °C 29.8in /  1010.0hPa SSE 6mph /  9.7km/h 6.5mph /  10.5km/h 97% 0in /  0.0mm
07:53 45.1 °F /  7.3 °C 44.4 °F /  6.9 °C 29.9in /  1011.1hPa SE 0.9mph /  1.4km/h 6.5mph /  10.5km/h 97% 0in /  0.0mm
07:58 45.1 °F /  7.3 °C 44.4 °F /  6.9 °C 29.9in /  1011.1hPa SSE 5.8mph /  9.3km/h 7.2mph /  11.6km/h 97% 0in /  0.0mm
08:03 45.1 °F /  7.3 °C 44.4 °F /  6.9 °C 29.9in /  1011.1hPa SSE 4.7mph /  7.6km/h 7.2mph /  11.6km/h 97% 0in /  0.0mm
08:08 45.3 °F /  7.4 °C 44.6 °F /  7.0 °C 29.9in /  1011.1hPa SSE 4.9mph /  7.9km/h 6.5mph /  10.5km/h 97% 0in /  0.0mm
08:13 45.3 °F /  7.4 °C 44.6 °F /  7.0 °C 29.9in /  1011.1hPa SSE 3.1mph /  5.0km/h 7.2mph /  11.6km/h 97% 0in /  0.0mm
08:18 45.7 °F /  7.6 °C 44.8 °F /  7.1 °C 29.9in /  1011.1hPa SE 2.9mph /  4.7km/h 7.6mph /  12.2km/h 97% 0in /  0.0mm
08:23 45.7 °F /  7.6 °C 44.8 °F /  7.1 °C 29.8in /  1010.0hPa SSE 2.9mph /  4.7km/h 7.6mph /  12.2km/h 97% 0in /  0.0mm
08:28 45.7 °F /  7.6 °C 44.8 °F /  7.1 °C 29.8in /  1010.0hPa Calm   7.2mph /  11.6km/h 97% 0in /  0.0mm
08:33 45.7 °F /  7.6 °C 44.8 °F /  7.1 °C 29.8in /  1010.0hPa SE 4.9mph /  7.9km/h 7.4mph /  11.9km/h 97% 0in /  0.0mm
08:38 45.7 °F /  7.6 °C 44.8 °F /  7.1 °C 29.9in /  1011.1hPa South 2.7mph /  4.3km/h 7.4mph /  11.9km/h 97% 0in /  0.0mm
08:43 45.7 °F /  7.6 °C 44.8 °F /  7.1 °C 29.9in /  1011.1hPa SSE 3.8mph /  6.1km/h 6.5mph /  10.5km/h 97% 0in /  0.0mm
08:48 45.7 °F /  7.6 °C 44.8 °F /  7.1 °C 29.9in /  1011.1hPa SE 0.9mph /  1.4km/h 6.3mph /  10.1km/h 97% 0in /  0.0mm
08:53 45.7 °F /  7.6 °C 44.8 °F /  7.1 °C 29.8in /  1010.0hPa SSE 7.8mph /  12.6km/h 7.8mph /  12.6km/h 97% 0in /  0.0mm
08:58 45.7 °F /  7.6 °C 44.8 °F /  7.1 °C 29.8in /  1010.0hPa SSE 6.3mph /  10.1km/h 7.8mph /  12.6km/h 97% 0in /  0.0mm
09:03 45.9 °F /  7.7 °C 45 °F /  7.2 °C 29.8in /  1010.0hPa East 8.7mph /  14.0km/h 8.7mph /  14.0km/h 97% 0in /  0.0mm
09:08 45.9 °F /  7.7 °C 45 °F /  7.2 °C 29.8in /  1010.0hPa SE 5.8mph /  9.3km/h 8.7mph /  14.0km/h 97% 0in /  0.0mm
09:13 45.9 °F /  7.7 °C 45 °F /  7.2 °C 29.8in /  1010.0hPa SSE 6.5mph /  10.5km/h 8.5mph /  13.7km/h 97% 0in /  0.0mm
09:18 45.9 °F /  7.7 °C 45 °F /  7.2 °C 29.8in /  1010.0hPa South 3.6mph /  5.8km/h 7.8mph /  12.6km/h 97% 0in /  0.0mm
09:23 45.9 °F /  7.7 °C 45 °F /  7.2 °C 29.8in /  1010.0hPa SSE 5.8mph /  9.3km/h 7.8mph /  12.6km/h 97% 0in /  0.0mm
09:28 45.9 °F /  7.7 °C 45 °F /  7.2 °C 29.8in /  1010.0hPa SE 4.5mph /  7.2km/h 10.7mph /  17.2km/h 97% 0in /  0.0mm
09:33 45.9 °F /  7.7 °C 45.1 °F /  7.3 °C 29.8in /  1010.0hPa SSE 3.8mph /  6.1km/h 10.7mph /  17.2km/h 97% 0in /  0.0mm
09:38 45.9 °F /  7.7 °C 45.1 °F /  7.3 °C 29.9in /  1011.1hPa SSW 2.7mph /  4.3km/h 7.6mph /  12.2km/h 97% 0in /  0.0mm
09:43 45.9 °F /  7.7 °C 45.1 °F /  7.3 °C 29.9in /  1011.1hPa SSE 5.6mph /  9.0km/h 9.8mph /  15.8km/h 97% 0in /  0.0mm
09:48 45.9 °F /  7.7 °C 45.1 °F /  7.3 °C 29.9in /  1011.1hPa SSE 5.4mph /  8.7km/h 9.8mph /  15.8km/h 97% 0in /  0.0mm
09:53 45.9 °F /  7.7 °C 45.1 °F /  7.3 °C 29.9in /  1011.1hPa South 6.3mph /  10.1km/h 8.5mph /  13.7km/h 97% 0in /  0.0mm
09:58 46 °F /  7.8 °C 45.3 °F /  7.4 °C 29.9in /  1011.1hPa SSE 2.9mph /  4.7km/h 8.1mph /  13.0km/h 97% 0in /  0.0mm
10:03 46.2 °F /  7.9 °C 45.5 °F /  7.5 °C 29.9in /  1011.1hPa SSE 2.9mph /  4.7km/h 8.1mph /  13.0km/h 97% 0in /  0.0mm
10:08 46.2 °F /  7.9 °C 45.5 °F /  7.5 °C 29.9in /  1011.1hPa SSE 3.4mph /  5.5km/h 6.5mph /  10.5km/h 97% 0in /  0.0mm
10:13 46.2 °F /  7.9 °C 45.5 °F /  7.5 °C 29.9in /  1011.1hPa SSE 3.8mph /  6.1km/h 9.8mph /  15.8km/h 97% 0in /  0.0mm
10:18 46.6 °F /  8.1 °C 45.7 °F /  7.6 °C 29.9in /  1011.1hPa SE 6.3mph /  10.1km/h 9.8mph /  15.8km/h 97% 0in /  0.0mm
10:23 46.6 °F /  8.1 °C 45.7 °F /  7.6 °C 29.9in /  1011.1hPa SSE 5.4mph /  8.7km/h 7.4mph /  11.9km/h 97% 0in /  0.0mm
10:28 46.6 °F /  8.1 °C 45.9 °F /  7.7 °C 29.9in /  1011.1hPa SSW 3.6mph /  5.8km/h 9.2mph /  14.8km/h 97% 0in /  0.0mm
10:33 46.6 °F /  8.1 °C 45.9 °F /  7.7 °C 29.9in /  1011.1hPa South 5.4mph /  8.7km/h 9.2mph /  14.8km/h 97% 0in /  0.0mm
10:38 46.6 °F /  8.1 °C 45.9 °F /  7.7 °C 29.9in /  1011.1hPa SSE 7.2mph /  11.6km/h 8.5mph /  13.7km/h 97% 0in /  0.0mm
10:43 46.6 °F /  8.1 °C 45.9 °F /  7.7 °C 29.9in /  1011.1hPa SSW 4.3mph /  6.9km/h 7.2mph /  11.6km/h 97% 0in /  0.0mm
10:48 46.8 °F /  8.2 °C 46 °F /  7.8 °C 29.9in /  1011.1hPa South 5.8mph /  9.3km/h 7.2mph /  11.6km/h 97% 0in /  0.0mm
10:53 46.8 °F /  8.2 °C 46 °F /  7.8 °C 29.9in /  1011.1hPa SSE 1.6mph /  2.6km/h 6.7mph /  10.8km/h 97% 0in /  0.0mm
10:58 46.9 °F /  8.3 °C 46.2 °F /  7.9 °C 29.9in /  1011.1hPa South 10.1mph /  16.3km/h 10.1mph /  16.3km/h 97% 0in /  0.0mm
11:03 47.1 °F /  8.4 °C 46.4 °F /  8.0 °C 29.9in /  1011.1hPa SSE 4mph /  6.4km/h 10.1mph /  16.3km/h 97% 0in /  0.0mm
11:08 47.3 °F /  8.5 °C 46.6 °F /  8.1 °C 29.9in /  1011.1hPa South 3.4mph /  5.5km/h 10.1mph /  16.3km/h 97% 0in /  0.0mm
11:13 47.5 °F /  8.6 °C 46.8 °F /  8.2 °C 29.9in /  1011.1hPa SSE 7.2mph /  11.6km/h 8.7mph /  14.0km/h 97% 0in /  0.0mm
11:18 47.7 °F /  8.7 °C 46.9 °F /  8.3 °C 29.9in /  1011.1hPa SSE 5.8mph /  9.3km/h 10.7mph /  17.2km/h 97% 0in /  0.0mm
11:23 47.7 °F /  8.7 °C 46.9 °F /  8.3 °C 29.9in /  1011.1hPa SSE 4mph /  6.4km/h 11mph /  17.7km/h 97% 0in /  0.0mm
11:28 47.8 °F /  8.8 °C 46.8 °F /  8.2 °C 29.9in /  1011.1hPa SW 7.2mph /  11.6km/h 11mph /  17.7km/h 96% 0in /  0.0mm
11:33 47.7 °F /  8.7 °C 46.9 °F /  8.3 °C 29.9in /  1011.1hPa SSW 10.1mph /  16.3km/h 11mph /  17.7km/h 97% 0in /  0.0mm
11:38 47.7 °F /  8.7 °C 46.6 °F /  8.1 °C 29.9in /  1011.1hPa SSE 11mph /  17.7km/h 11mph /  17.7km/h 96% 0in /  0.0mm
11:43 47.7 °F /  8.7 °C 46.6 °F /  8.1 °C 29.9in /  1011.1hPa SSE 8.5mph /  13.7km/h 13mph /  20.9km/h 96% 0in /  0.0mm
11:48 47.7 °F /  8.7 °C 46.6 °F /  8.1 °C 29.9in /  1011.1hPa SSE 7.4mph /  11.9km/h 14.5mph /  23.3km/h 96% 0in /  0.0mm
11:53 47.7 °F /  8.7 °C 46.6 °F /  8.1 °C 29.9in /  1011.1hPa SSE 6.3mph /  10.1km/h 15.4mph /  24.8km/h 96% 0in /  0.0mm
11:58 47.7 °F /  8.7 °C 46.6 °F /  8.1 °C 29.9in /  1011.1hPa South 10.3mph /  16.6km/h 15.4mph /  24.8km/h 96% 0in /  0.0mm
12:03 47.7 °F /  8.7 °C 46.6 °F /  8.1 °C 29.9in /  1011.1hPa SSE 8.1mph /  13.0km/h 11mph /  17.7km/h 96% 0in /  0.0mm
12:08 47.7 °F /  8.7 °C 46.6 °F /  8.1 °C 29.8in /  1010.0hPa South 4mph /  6.4km/h 12.1mph /  19.5km/h 96% 0in /  0.0mm
12:13 47.8 °F /  8.8 °C 46.8 °F /  8.2 °C 29.8in /  1010.0hPa SSW 5.8mph /  9.3km/h 12.1mph /  19.5km/h 96% 0in /  0.0mm
12:18 47.8 °F /  8.8 °C 46.8 °F /  8.2 °C 29.8in /  1010.0hPa South 6mph /  9.7km/h 13.4mph /  21.6km/h 96% 0in /  0.0mm
12:23 48 °F /  8.9 °C 46.9 °F /  8.3 °C 29.8in /  1010.0hPa South 4.3mph /  6.9km/h 13.4mph /  21.6km/h 96% 0in /  0.0mm
12:28 48.2 °F /  9.0 °C 47.1 °F /  8.4 °C 29.8in /  1010.0hPa South 5.8mph /  9.3km/h 11mph /  17.7km/h 96% 0in /  0.0mm
12:33 48.4 °F /  9.1 °C 47.3 °F /  8.5 °C 29.8in /  1010.0hPa SSE 8.1mph /  13.0km/h 10.5mph /  16.9km/h 96% 0in /  0.0mm
12:38 48.4 °F /  9.1 °C 47.3 °F /  8.5 °C 29.8in /  1010.0hPa South 10.3mph /  16.6km/h 12.5mph /  20.1km/h 96% 0in /  0.0mm
12:43 48.4 °F /  9.1 °C 47.3 °F /  8.5 °C 29.8in /  1010.0hPa SSE 7.6mph /  12.2km/h 12.5mph /  20.1km/h 96% 0in /  0.0mm
12:48 48.2 °F /  9.0 °C 47.1 °F /  8.4 °C 29.8in /  1010.0hPa South 9.8mph /  15.8km/h 12.5mph /  20.1km/h 96% 0in /  0.0mm
12:53 48.2 °F /  9.0 °C 47.1 °F /  8.4 °C 29.8in /  1010.0hPa East 8.1mph /  13.0km/h 12.5mph /  20.1km/h 96% 0in /  0.0mm
12:58 48.2 °F /  9.0 °C 47.1 °F /  8.4 °C 29.8in /  1010.0hPa South 8.7mph /  14.0km/h 11mph /  17.7km/h 96% 0in /  0.0mm
13:03 48.2 °F /  9.0 °C 47.1 °F /  8.4 °C 29.8in /  1010.0hPa SSW 4mph /  6.4km/h 12.1mph /  19.5km/h 96% 0in /  0.0mm
13:08 48.2 °F /  9.0 °C 47.1 °F /  8.4 °C 29.8in /  1010.0hPa South 8.9mph /  14.3km/h 12.1mph /  19.5km/h 96% 0in /  0.0mm
13:13 48.2 °F /  9.0 °C 47.1 °F /  8.4 °C 29.8in /  1010.0hPa SSE 8.1mph /  13.0km/h 13mph /  20.9km/h 96% 0in /  0.0mm
13:18 48.2 °F /  9.0 °C 47.1 °F /  8.4 °C 29.8in /  1010.0hPa South 4.3mph /  6.9km/h 13mph /  20.9km/h 96% 0in /  0.0mm
13:23 48.2 °F /  9.0 °C 47.1 °F /  8.4 °C 29.8in /  1009.0hPa South 7.8mph /  12.6km/h 11.9mph /  19.1km/h 96% 0in /  0.0mm
13:28 48.2 °F /  9.0 °C 47.1 °F /  8.4 °C 29.8in /  1009.0hPa South 4.3mph /  6.9km/h 11.2mph /  18.0km/h 96% 0in /  0.0mm
13:33 48.2 °F /  9.0 °C 47.1 °F /  8.4 °C 29.8in /  1009.0hPa SSE 5.6mph /  9.0km/h 11.4mph /  18.3km/h 96% 0in /  0.0mm
13:38 48.2 °F /  9.0 °C 47.1 °F /  8.4 °C 29.8in /  1009.0hPa South 6mph /  9.7km/h 11.4mph /  18.3km/h 96% 0in /  0.0mm
13:43 48.2 °F /  9.0 °C 47.1 °F /  8.4 °C 29.8in /  1009.0hPa South 8.5mph /  13.7km/h 10.3mph /  16.6km/h 96% 0in /  0.0mm
13:48 48.2 °F /  9.0 °C 47.1 °F /  8.4 °C 29.8in /  1009.0hPa South 9.8mph /  15.8km/h 11mph /  17.7km/h 96% 0in /  0.0mm
13:53 48.2 °F /  9.0 °C 47.1 °F /  8.4 °C 29.8in /  1008.0hPa SSE 6.3mph /  10.1km/h 11mph /  17.7km/h 96% 0in /  0.0mm
13:58 48.2 °F /  9.0 °C 47.1 °F /  8.4 °C 29.8in /  1008.0hPa SSE 4mph /  6.4km/h 10.1mph /  16.3km/h 96% 0in /  0.0mm
14:03 48.2 °F /  9.0 °C 47.1 °F /  8.4 °C 29.8in /  1008.0hPa South 7.2mph /  11.6km/h 10.7mph /  17.2km/h 96% 0in /  0.0mm
14:08 48 °F /  8.9 °C 46.9 °F /  8.3 °C 29.8in /  1009.0hPa SSE 7.6mph /  12.2km/h 10.7mph /  17.2km/h 96% 0in /  0.0mm
14:13 48 °F /  8.9 °C 46.9 °F /  8.3 °C 29.8in /  1009.0hPa SW 3.1mph /  5.0km/h 10.7mph /  17.2km/h 96% 0in /  0.0mm
14:18 48 °F /  8.9 °C 46.9 °F /  8.3 °C 29.8in /  1009.0hPa SSE 6.3mph /  10.1km/h 12.1mph /  19.5km/h 96% 0in /  0.0mm
14:23 48 °F /  8.9 °C 46.9 °F /  8.3 °C 29.8in /  1009.0hPa SSE 5.8mph /  9.3km/h 12.1mph /  19.5km/h 96% 0in /  0.0mm
14:28 48 °F /  8.9 °C 46.9 °F /  8.3 °C 29.8in /  1009.0hPa SSE 5.4mph /  8.7km/h 9.8mph /  15.8km/h 96% 0in /  0.0mm
14:33 48 °F /  8.9 °C 46.9 °F /  8.3 °C 29.8in /  1009.0hPa SSW 3.4mph /  5.5km/h 8.9mph /  14.3km/h 96% 0in /  0.0mm
14:38 48.2 °F /  9.0 °C 47.1 °F /  8.4 °C 29.8in /  1009.0hPa SSE 7.8mph /  12.6km/h 10.1mph /  16.3km/h 96% 0in /  0.0mm
14:43 48.2 °F /  9.0 °C 47.1 °F /  8.4 °C 29.8in /  1009.0hPa SSE 7.2mph /  11.6km/h 10.3mph /  16.6km/h 96% 0in /  0.0mm
14:48 48.2 °F /  9.0 °C 47.1 °F /  8.4 °C 29.8in /  1009.0hPa SSW 6.3mph /  10.1km/h 10.3mph /  16.6km/h 96% 0in /  0.0mm
14:53 48.2 °F /  9.0 °C 47.1 °F /  8.4 °C 29.8in /  1009.0hPa South 6.9mph /  11.1km/h 11.4mph /  18.3km/h 96% 0in /  0.0mm
14:58 48.2 °F /  9.0 °C 47.1 °F /  8.4 °C 29.8in /  1009.0hPa South 3.8mph /  6.1km/h 11.4mph /  18.3km/h 96% 0in /  0.0mm
15:03 48.2 °F /  9.0 °C 47.1 °F /  8.4 °C 29.8in /  1009.0hPa South 6.3mph /  10.1km/h 8.7mph /  14.0km/h 96% 0in /  0.0mm
15:08 48.2 °F /  9.0 °C 47.1 °F /  8.4 °C 29.8in /  1009.0hPa South 6.5mph /  10.5km/h 10.5mph /  16.9km/h 96% 0in /  0.0mm
15:13 48.4 °F /  9.1 °C 47.3 °F /  8.5 °C 29.8in /  1009.0hPa SSW 6.3mph /  10.1km/h 10.5mph /  16.9km/h 96% 0in /  0.0mm
15:18 48.4 °F /  9.1 °C 47.3 °F /  8.5 °C 29.8in /  1009.0hPa SSW 5.6mph /  9.0km/h 10.5mph /  16.9km/h 96% 0in /  0.0mm
15:23 48.4 °F /  9.1 °C 47.3 °F /  8.5 °C 29.8in /  1009.0hPa SSW 6mph /  9.7km/h 10.5mph /  16.9km/h 96% 0in /  0.0mm
15:28 48.2 °F /  9.0 °C 47.1 °F /  8.4 °C 29.8in /  1009.0hPa South 4.9mph /  7.9km/h 10.3mph /  16.6km/h 96% 0in /  0.0mm
15:33 48.2 °F /  9.0 °C 47.1 °F /  8.4 °C 29.8in /  1009.0hPa SSE 13mph /  20.9km/h 13mph /  20.9km/h 96% 0in /  0.0mm
15:38 48.2 °F /  9.0 °C 47.1 °F /  8.4 °C 29.8in /  1009.0hPa South 7.8mph /  12.6km/h 13mph /  20.9km/h 96% 0in /  0.0mm
15:43 48.2 °F /  9.0 °C 47.1 °F /  8.4 °C 29.8in /  1009.0hPa SSW 6mph /  9.7km/h 11.9mph /  19.1km/h 96% 0in /  0.0mm
15:48 48.2 °F /  9.0 °C 47.1 °F /  8.4 °C 29.8in /  1009.0hPa South 5.4mph /  8.7km/h 8.1mph /  13.0km/h 96% 0in /  0.0mm
15:53 48.2 °F /  9.0 °C 47.1 °F /  8.4 °C 29.8in /  1009.0hPa South 3.6mph /  5.8km/h 8.1mph /  13.0km/h 96% 0in /  0.0mm
15:58 48.2 °F /  9.0 °C 47.1 °F /  8.4 °C 29.8in /  1009.0hPa SSW 6mph /  9.7km/h 8.7mph /  14.0km/h 96% 0in /  0.0mm
16:03 48.2 °F /  9.0 °C 47.1 °F /  8.4 °C 29.8in /  1009.0hPa SSW 5.8mph /  9.3km/h 9.6mph /  15.4km/h 96% 0in /  0.0mm
16:08 48.2 °F /  9.0 °C 47.1 °F /  8.4 °C 29.8in /  1009.0hPa SSW 6mph /  9.7km/h 9.8mph /  15.8km/h 96% 0in /  0.0mm
16:13 48.2 °F /  9.0 °C 47.1 °F /  8.4 °C 29.8in /  1009.0hPa SSE 4.3mph /  6.9km/h 9.8mph /  15.8km/h 96% 0in /  0.0mm
16:18 48.2 °F /  9.0 °C 47.1 °F /  8.4 °C 29.8in /  1009.0hPa SSW 4.3mph /  6.9km/h 8.9mph /  14.3km/h 96% 0in /  0.0mm
16:23 48.2 °F /  9.0 °C 47.1 °F /  8.4 °C 29.8in /  1009.0hPa South 4mph /  6.4km/h 10.3mph /  16.6km/h 96% 0in /  0.0mm
16:28 48.2 °F /  9.0 °C 47.1 °F /  8.4 °C 29.8in /  1009.0hPa South 3.8mph /  6.1km/h 10.3mph /  16.6km/h 96% 0in /  0.0mm
16:33 48.2 °F /  9.0 °C 47.1 °F /  8.4 °C 29.8in /  1009.0hPa SSW 6.3mph /  10.1km/h 8.5mph /  13.7km/h 96% 0in /  0.0mm
16:38 48 °F /  8.9 °C 46.9 °F /  8.3 °C 29.8in /  1008.0hPa SSE 4.3mph /  6.9km/h 7.8mph /  12.6km/h 96% 0.01in /  0.3mm
16:43 48 °F /  8.9 °C 46.9 °F /  8.3 °C 29.8in /  1008.0hPa South 4.9mph /  7.9km/h 7.8mph /  12.6km/h 96% 0.01in /  0.3mm
16:48 48 °F /  8.9 °C 46.9 °F /  8.3 °C 29.8in /  1008.0hPa SSE 5.6mph /  9.0km/h 10.3mph /  16.6km/h 96% 0.01in /  0.3mm
16:53 48 °F /  8.9 °C 46.9 °F /  8.3 °C 29.8in /  1008.0hPa South 7.6mph /  12.2km/h 10.3mph /  16.6km/h 96% 0.01in /  0.3mm
16:58 48 °F /  8.9 °C 46.9 °F /  8.3 °C 29.8in /  1008.0hPa South 4.3mph /  6.9km/h 8.7mph /  14.0km/h 96% 0.01in /  0.3mm
17:03 48 °F /  8.9 °C 46.9 °F /  8.3 °C 29.8in /  1008.0hPa South 8.5mph /  13.7km/h 9.2mph /  14.8km/h 96% 0.01in /  0.3mm
17:08 48 °F /  8.9 °C 46.9 °F /  8.3 °C 29.8in /  1008.0hPa South 5.8mph /  9.3km/h 9.6mph /  15.4km/h 96% 0.01in /  0.3mm
17:13 48 °F /  8.9 °C 46.9 °F /  8.3 °C 29.8in /  1008.0hPa South 8.7mph /  14.0km/h 10.5mph /  16.9km/h 96% 0.01in /  0.3mm
17:18 48 °F /  8.9 °C 46.9 °F /  8.3 °C 29.8in /  1008.0hPa South 4mph /  6.4km/h 10.5mph /  16.9km/h 96% 0.01in /  0.3mm
17:23 48 °F /  8.9 °C 46.9 °F /  8.3 °C 29.8in /  1008.0hPa SSW 3.1mph /  5.0km/h 9.8mph /  15.8km/h 96% 0.01in /  0.3mm
17:28 47.8 °F /  8.8 °C 46.8 °F /  8.2 °C 29.8in /  1008.0hPa SSW 8.5mph /  13.7km/h 9.8mph /  15.8km/h 96% 0.01in /  0.3mm
17:33 47.8 °F /  8.8 °C 46.8 °F /  8.2 °C 29.8in /  1008.0hPa SSW 6mph /  9.7km/h 8.5mph /  13.7km/h 96% 0.01in /  0.3mm
17:38 47.8 °F /  8.8 °C 46.8 °F /  8.2 °C 29.8in /  1008.0hPa South 4.3mph /  6.9km/h 8.1mph /  13.0km/h 96% 0.01in /  0.3mm
17:43 47.8 °F /  8.8 °C 46.8 °F /  8.2 °C 29.8in /  1008.0hPa SSW 3.6mph /  5.8km/h 8.1mph /  13.0km/h 96% 0.01in /  0.3mm
17:48 47.8 °F /  8.8 °C 46.8 °F /  8.2 °C 29.8in /  1008.0hPa SSW 4mph /  6.4km/h 9.4mph /  15.1km/h 96% 0.01in /  0.3mm
17:53 47.8 °F /  8.8 °C 46.8 °F /  8.2 °C 29.8in /  1008.0hPa South 4.3mph /  6.9km/h 9.4mph /  15.1km/h 96% 0.01in /  0.3mm
17:58 47.8 °F /  8.8 °C 46.8 °F /  8.2 °C 29.8in /  1008.0hPa South 8.7mph /  14.0km/h 8.7mph /  14.0km/h 96% 0.02in /  0.5mm
18:03 47.8 °F /  8.8 °C 46.8 °F /  8.2 °C 29.8in /  1008.0hPa South 8.7mph /  14.0km/h 9.4mph /  15.1km/h 96% 0.02in /  0.5mm
18:08 47.8 °F /  8.8 °C 46.8 °F /  8.2 °C 29.8in /  1008.0hPa SSE 6.5mph /  10.5km/h 9.4mph /  15.1km/h 96% 0.02in /  0.5mm
18:13 47.8 °F /  8.8 °C 46.8 °F /  8.2 °C 29.8in /  1008.0hPa SSE 7.8mph /  12.6km/h 8.7mph /  14.0km/h 96% 0.02in /  0.5mm
18:18 47.8 °F /  8.8 °C 46.8 °F /  8.2 °C 29.8in /  1008.0hPa SSE 5.6mph /  9.0km/h 14.5mph /  23.3km/h 96% 0.03in /  0.8mm
18:23 48 °F /  8.9 °C 46.9 °F /  8.3 °C 29.8in /  1008.0hPa SSE 6mph /  9.7km/h 14.5mph /  23.3km/h 96% 0.03in /  0.8mm
18:28 48 °F /  8.9 °C 46.9 °F /  8.3 °C 29.8in /  1008.0hPa SSE 5.6mph /  9.0km/h 9.6mph /  15.4km/h 96% 0.03in /  0.8mm
18:33 48 °F /  8.9 °C 46.9 °F /  8.3 °C 29.8in /  1008.0hPa South 11.9mph /  19.1km/h 11.9mph /  19.1km/h 96% 0.03in /  0.8mm
18:38 48 °F /  8.9 °C 46.9 °F /  8.3 °C 29.8in /  1008.0hPa SSE 3.6mph /  5.8km/h 11.9mph /  19.1km/h 96% 0.03in /  0.8mm
18:43 48 °F /  8.9 °C 46.9 °F /  8.3 °C 29.8in /  1008.0hPa South 3.4mph /  5.5km/h 12.3mph /  19.8km/h 96% 0.03in /  0.8mm
18:48 48 °F /  8.9 °C 46.9 °F /  8.3 °C 29.8in /  1008.0hPa South 6mph /  9.7km/h 12.3mph /  19.8km/h 96% 0.03in /  0.8mm
18:53 48 °F /  8.9 °C 46.9 °F /  8.3 °C 29.8in /  1008.0hPa SSE 5.4mph /  8.7km/h 10.7mph /  17.2km/h 96% 0.03in /  0.8mm
18:54 48 °F /  8.9 °C 46.9 °F /  8.3 °C 29.8in /  1008.0hPa SE 4.9mph /  7.9km/h 10.7mph /  17.2km/h 96% 0.03in /  0.8mm
18:59 48.2 °F /  9.0 °C 47.1 °F /  8.4 °C 29.8in /  1008.0hPa SSE 6mph /  9.7km/h 14.8mph /  23.8km/h 96% 0.01in /  0.3mm
19:04 48.2 °F /  9.0 °C 47.1 °F /  8.4 °C 29.8in /  1008.0hPa South 6.5mph /  10.5km/h 14.8mph /  23.8km/h 96% 0.01in /  0.3mm
19:09 48.2 °F /  9.0 °C 47.1 °F /  8.4 °C 29.8in /  1008.0hPa SSE 5.6mph /  9.0km/h 10.1mph /  16.3km/h 96% 0.01in /  0.3mm
19:14 48.2 °F /  9.0 °C 47.1 °F /  8.4 °C 29.8in /  1008.0hPa South 3.1mph /  5.0km/h 9.8mph /  15.8km/h 96% 0.01in /  0.3mm
19:19 48.2 °F /  9.0 °C 47.1 °F /  8.4 °C 29.8in /  1008.0hPa SSW 4.3mph /  6.9km/h 8.7mph /  14.0km/h 96% 0in /  0.0mm
19:24 48.2 °F /  9.0 °C 47.1 °F /  8.4 °C 29.8in /  1008.0hPa SSE 6.5mph /  10.5km/h 9.6mph /  15.4km/h 96% 0in /  0.0mm
19:29 48.2 °F /  9.0 °C 47.1 °F /  8.4 °C 29.8in /  1008.0hPa SSW 6mph /  9.7km/h 10.1mph /  16.3km/h 96% 0in /  0.0mm
19:34 48.2 °F /  9.0 °C 47.1 °F /  8.4 °C 29.8in /  1008.0hPa SW 6.3mph /  10.1km/h 11.2mph /  18.0km/h 96% 0in /  0.0mm
19:39 48.2 °F /  9.0 °C 47.1 °F /  8.4 °C 29.8in /  1008.0hPa South 4.9mph /  7.9km/h 11.2mph /  18.0km/h 96% 0in /  0.0mm
19:44 48.2 °F /  9.0 °C 47.1 °F /  8.4 °C 29.8in /  1008.0hPa South 6.5mph /  10.5km/h 10.7mph /  17.2km/h 96% 0in /  0.0mm
19:49 48.2 °F /  9.0 °C 47.1 °F /  8.4 °C 29.8in /  1008.0hPa SSW 5.6mph /  9.0km/h 10.3mph /  16.6km/h 96% 0in /  0.0mm
19:54 48.2 °F /  9.0 °C 47.1 °F /  8.4 °C 29.7in /  1007.0hPa SSW 5.8mph /  9.3km/h 7.8mph /  12.6km/h 96% 0in /  0.0mm
19:59 48.2 °F /  9.0 °C 47.1 °F /  8.4 °C 29.7in /  1007.0hPa SSW 7.4mph /  11.9km/h 10.1mph /  16.3km/h 96% 0in /  0.0mm
20:04 48.4 °F /  9.1 °C 47.3 °F /  8.5 °C 29.7in /  1007.0hPa South 5.8mph /  9.3km/h 10.7mph /  17.2km/h 96% 0in /  0.0mm
20:09 48.4 °F /  9.1 °C 47.3 °F /  8.5 °C 29.8in /  1008.0hPa SSE 8.7mph /  14.0km/h 10.7mph /  17.2km/h 96% 0in /  0.0mm
20:14 48.4 °F /  9.1 °C 47.7 °F /  8.7 °C 29.8in /  1008.0hPa South 9.6mph /  15.4km/h 10.7mph /  17.2km/h 97% 0in /  0.0mm
20:19 48.4 °F /  9.1 °C 47.7 °F /  8.7 °C 29.8in /  1008.0hPa SSE 6.3mph /  10.1km/h 12.1mph /  19.5km/h 97% 0in /  0.0mm
20:24 48.4 °F /  9.1 °C 47.3 °F /  8.5 °C 29.7in /  1007.0hPa SSE 8.1mph /  13.0km/h 12.5mph /  20.1km/h 96% 0in /  0.0mm
20:29 48.4 °F /  9.1 °C 47.7 °F /  8.7 °C 29.7in /  1007.0hPa SSW 5.8mph /  9.3km/h 12.5mph /  20.1km/h 97% 0in /  0.0mm
20:34 48.4 °F /  9.1 °C 47.3 °F /  8.5 °C 29.7in /  1007.0hPa South 4.3mph /  6.9km/h 8.7mph /  14.0km/h 96% 0in /  0.0mm
20:39 48.4 °F /  9.1 °C 47.3 °F /  8.5 °C 29.7in /  1007.0hPa SSW 5.4mph /  8.7km/h 8.7mph /  14.0km/h 96% 0in /  0.0mm
20:44 48.4 °F /  9.1 °C 47.3 °F /  8.5 °C 29.7in /  1007.0hPa SSE 8.1mph /  13.0km/h 8.1mph /  13.0km/h 96% 0in /  0.0mm
20:49 48.4 °F /  9.1 °C 47.3 °F /  8.5 °C 29.7in /  1007.0hPa SSE 6.5mph /  10.5km/h 10.7mph /  17.2km/h 96% 0in /  0.0mm
20:54 48.4 °F /  9.1 °C 47.3 °F /  8.5 °C 29.7in /  1007.0hPa South 8.5mph /  13.7km/h 10.7mph /  17.2km/h 96% 0in /  0.0mm
20:59 48.4 °F /  9.1 °C 47.7 °F /  8.7 °C 29.7in /  1007.0hPa SSW 4.3mph /  6.9km/h 8.5mph /  13.7km/h 97% 0in /  0.0mm
21:04 48.4 °F /  9.1 °C 47.3 °F /  8.5 °C 29.7in /  1007.0hPa SSW 7.6mph /  12.2km/h 9.8mph /  15.8km/h 96% 0in /  0.0mm
21:09 48.4 °F /  9.1 °C 47.7 °F /  8.7 °C 29.7in /  1007.0hPa South 7.2mph /  11.6km/h 9.8mph /  15.8km/h 97% 0in /  0.0mm
21:14 48.4 °F /  9.1 °C 47.7 °F /  8.7 °C 29.7in /  1007.0hPa South 4.9mph /  7.9km/h 8.7mph /  14.0km/h 97% 0in /  0.0mm
21:19 48.6 °F /  9.2 °C 47.5 °F /  8.6 °C 29.7in /  1007.0hPa South 7.4mph /  11.9km/h 8.7mph /  14.0km/h 96% 0in /  0.0mm
21:24 48.4 °F /  9.1 °C 47.7 °F /  8.7 °C 29.8in /  1008.0hPa South 6.5mph /  10.5km/h 8.7mph /  14.0km/h 97% 0in /  0.0mm
21:29 48.4 °F /  9.1 °C 47.7 °F /  8.7 °C 29.8in /  1008.0hPa South 4mph /  6.4km/h 8.1mph /  13.0km/h 97% 0in /  0.0mm
21:34 48.4 °F /  9.1 °C 47.3 °F /  8.5 °C 29.8in /  1008.0hPa South 4.9mph /  7.9km/h 8.1mph /  13.0km/h 96% 0in /  0.0mm
21:39 48.4 °F /  9.1 °C 47.3 °F /  8.5 °C 29.7in /  1007.0hPa SSE 5.4mph /  8.7km/h 8.1mph /  13.0km/h 96% 0in /  0.0mm
21:44 48.2 °F /  9.0 °C 47.1 °F /  8.4 °C 29.7in /  1007.0hPa SSW 7.2mph /  11.6km/h 7.6mph /  12.2km/h 96% 0in /  0.0mm
21:49 48.2 °F /  9.0 °C 47.1 °F /  8.4 °C 29.7in /  1007.0hPa South 6mph /  9.7km/h 7.2mph /  11.6km/h 96% 0in /  0.0mm
21:54 48.2 °F /  9.0 °C 47.1 °F /  8.4 °C 29.7in /  1007.0hPa South 5.4mph /  8.7km/h 7.4mph /  11.9km/h 96% 0in /  0.0mm
21:59 48.2 °F /  9.0 °C 47.1 °F /  8.4 °C 29.7in /  1007.0hPa South 2.2mph /  3.5km/h 7.4mph /  11.9km/h 96% 0in /  0.0mm
22:04 48.2 °F /  9.0 °C 47.1 °F /  8.4 °C 29.7in /  1007.0hPa South 2.7mph /  4.3km/h 5.6mph /  9.0km/h 96% 0in /  0.0mm
22:09 48 °F /  8.9 °C 46.9 °F /  8.3 °C 29.7in /  1007.0hPa SSW 0.9mph /  1.4km/h 5.6mph /  9.0km/h 96% 0in /  0.0mm
22:14 48 °F /  8.9 °C 46.9 °F /  8.3 °C 29.7in /  1007.0hPa South 3.8mph /  6.1km/h 6.3mph /  10.1km/h 96% 0in /  0.0mm
22:19 47.8 °F /  8.8 °C 46.8 °F /  8.2 °C 29.7in /  1007.0hPa South 4mph /  6.4km/h 6.3mph /  10.1km/h 96% 0in /  0.0mm
22:24 47.7 °F /  8.7 °C 46.9 °F /  8.3 °C 29.7in /  1007.0hPa South 3.4mph /  5.5km/h 5.6mph /  9.0km/h 97% 0in /  0.0mm
22:29 47.7 °F /  8.7 °C 46.9 °F /  8.3 °C 29.7in /  1007.0hPa South 6mph /  9.7km/h 6.7mph /  10.8km/h 97% 0in /  0.0mm
22:34 47.8 °F /  8.8 °C 46.8 °F /  8.2 °C 29.7in /  1007.0hPa South 4.3mph /  6.9km/h 6.7mph /  10.8km/h 96% 0in /  0.0mm
22:39 47.8 °F /  8.8 °C 47.1 °F /  8.4 °C 29.7in /  1007.0hPa South 3.4mph /  5.5km/h 8.1mph /  13.0km/h 97% 0in /  0.0mm
22:44 48 °F /  8.9 °C 47.1 °F /  8.4 °C 29.7in /  1007.0hPa SSW 7.2mph /  11.6km/h 8.1mph /  13.0km/h 97% 0in /  0.0mm
22:49 48 °F /  8.9 °C 47.1 °F /  8.4 °C 29.7in /  1007.0hPa South 5.4mph /  8.7km/h 8.1mph /  13.0km/h 97% 0in /  0.0mm
22:54 48 °F /  8.9 °C 47.1 °F /  8.4 °C 29.7in /  1007.0hPa South 6.3mph /  10.1km/h 8.1mph /  13.0km/h 97% 0in /  0.0mm
22:59 48 °F /  8.9 °C 47.1 °F /  8.4 °C 29.7in /  1007.0hPa SSW 5.4mph /  8.7km/h 7.4mph /  11.9km/h 97% 0in /  0.0mm
23:04 48 °F /  8.9 °C 47.1 °F /  8.4 °C 29.7in /  1007.0hPa South 5.8mph /  9.3km/h 8.1mph /  13.0km/h 97% 0in /  0.0mm
23:05 48 °F /  8.9 °C 47.1 °F /  8.4 °C 29.7in /  1007.0hPa SSW 3.8mph /  6.1km/h 8.1mph /  13.0km/h 97% 0in /  0.0mm
23:10 48 °F /  8.9 °C 47.1 °F /  8.4 °C 29.7in /  1007.0hPa South 5.4mph /  8.7km/h 7.4mph /  11.9km/h 97% 0in /  0.0mm
23:15 48 °F /  8.9 °C 47.1 °F /  8.4 °C 29.7in /  1007.0hPa SSW 4.3mph /  6.9km/h 10.5mph /  16.9km/h 97% 0in /  0.0mm
23:20 48 °F /  8.9 °C 47.1 °F /  8.4 °C 29.7in /  1007.0hPa South 4.9mph /  7.9km/h 10.5mph /  16.9km/h 97% 0in /  0.0mm
23:25 48 °F /  8.9 °C 47.1 °F /  8.4 °C 29.7in /  1007.0hPa SSW 7.4mph /  11.9km/h 8.5mph /  13.7km/h 97% 0in /  0.0mm
23:30 48 °F /  8.9 °C 47.1 °F /  8.4 °C 29.7in /  1007.0hPa SSW 5.8mph /  9.3km/h 8.5mph /  13.7km/h 97% 0in /  0.0mm
23:35 47.8 °F /  8.8 °C 47.1 °F /  8.4 °C 29.7in /  1007.0hPa SSW 6.3mph /  10.1km/h 7.8mph /  12.6km/h 97% 0in /  0.0mm
23:40 47.8 °F /  8.8 °C 47.1 °F /  8.4 °C 29.7in /  1007.0hPa SSW 6.3mph /  10.1km/h 7.8mph /  12.6km/h 97% 0in /  0.0mm
23:45 47.7 °F /  8.7 °C 46.9 °F /  8.3 °C 29.7in /  1007.0hPa South 5.6mph /  9.0km/h 6.5mph /  10.5km/h 97% 0in /  0.0mm
23:50 47.7 °F /  8.7 °C 46.9 °F /  8.3 °C 29.7in /  1007.0hPa SSW 6mph /  9.7km/h 7.4mph /  11.9km/h 97% 0in /  0.0mm
23:55 47.7 °F /  8.7 °C 46.9 °F /  8.3 °C 29.7in /  1006.0hPa South 3.8mph /  6.1km/h 8.7mph /  14.0km/h 97% 0in /  0.0mm
Données Historique de Météo Turbie

Mise a jour : 22/05/2018 21:48:14
Généré par Cumulus 1.9.4 (1099)